CheckWX is a tool to help pilots better visualize weather data.  It is not intended as a substitute for an official pre-flight weather briefing.

03:50:29 UTC

KMOP METAR
Mount Pleasant Municipal Airport
Mount Pleasant, Michigan, USA
Current

15 mins ago

KMOP 070335Z AUTO 00000KT 10SM SCT060 OVC080 11/04 A2995 RMK AO2 T01110039
Observed
Apr-7 @ 03:35 UTC
Visibility
Flight Rules
VFR
Cloud Levels
  • Scattered at 6,000' AGL
  • Overcast at 8,000' AGL
Temperature
11°C / 52°F
Dewpoint
C / 39°F
Humidity
62%
Altimeter
29.95" Hg
Pressure
1014.22 hPa
Previous

34 mins ago

KMOP 070316Z AUTO 00000KT 10SM SCT060 OVC080 12/04 A2996 RMK AO2 T01150041
Observed
Apr-7 @ 03:16 UTC
Visibility
Flight Rules
VFR
Cloud Levels
  • Scattered at 6,000' AGL
  • Overcast at 8,000' AGL
Temperature
12°C / 54°F
Dewpoint
C / 39°F
Humidity
58%
Altimeter
29.96" Hg
Pressure
1014.52 hPa
Previous

55 mins ago

KMOP 070255Z AUTO 00000KT 10SM OVC080 12/02 A2996 RMK AO2 T01200016
Observed
Apr-7 @ 02:55 UTC
Visibility
Flight Rules
VFR
Cloud Levels
  • Overcast at 8,000' AGL
Temperature
12°C / 54°F
Dewpoint
C / 36°F
Humidity
51%
Altimeter
29.96" Hg
Pressure
1014.52 hPa